createdAt,value
2023-07-18T00:00:41.868Z,512.4
2023-07-18T00:01:48.928Z,512.4
2023-07-18T00:02:51.075Z,512.5
2023-07-18T00:03:53.241Z,512.8
2023-07-18T00:04:54.979Z,513.1
2023-07-18T00:05:56.686Z,513.3
2023-07-18T00:06:58.422Z,513.4
2023-07-18T00:08:00.177Z,513.6
2023-07-18T00:09:02.176Z,513.5
2023-07-18T00:10:03.951Z,513.8
2023-07-18T00:11:05.761Z,513.3
2023-07-18T00:12:07.952Z,513.4
2023-07-18T00:13:09.728Z,513.2
2023-07-18T00:14:11.463Z,513.5
2023-07-18T00:15:13.168Z,513.7
2023-07-18T00:16:15.034Z,513.6
2023-07-18T00:17:16.867Z,513.4
2023-07-18T00:18:18.624Z,512.9
2023-07-18T00:19:20.642Z,513.3
2023-07-18T00:20:22.361Z,512.8
2023-07-18T00:21:24.035Z,513.1
2023-07-18T00:22:29.403Z,513.5
2023-07-18T00:23:31.147Z,513.9
2023-07-18T00:24:32.844Z,514.3
2023-07-18T00:25:35.102Z,514.4
2023-07-18T00:26:37.228Z,514.7
2023-07-18T00:27:38.959Z,514.7
2023-07-18T00:28:40.795Z,514.5
2023-07-18T00:29:42.476Z,514.1
2023-07-18T00:30:44.227Z,514.8
2023-07-18T00:31:46.456Z,514.5
2023-07-18T00:32:48.446Z,514.7
2023-07-18T00:33:50.208Z,514.8
2023-07-18T00:34:51.935Z,514.8
2023-07-18T00:35:53.660Z,514.6
2023-07-18T00:36:55.361Z,514.5
2023-07-18T00:37:57.044Z,514.7
2023-07-18T00:38:58.706Z,514.8
2023-07-18T00:40:00.485Z,514.8
2023-07-18T00:41:02.791Z,515.2
2023-07-18T00:42:04.668Z,515
2023-07-18T00:43:06.445Z,514.8
2023-07-18T00:44:08.320Z,515
2023-07-18T00:45:10.083Z,515.4
2023-07-18T00:46:14.924Z,515.3
2023-07-18T00:47:16.610Z,515.5
2023-07-18T00:48:18.325Z,515.8
2023-07-18T00:49:20.072Z,516.4
2023-07-18T00:50:21.784Z,516.2
2023-07-18T00:51:23.489Z,516.5
2023-07-18T00:52:25.229Z,516.2
2023-07-18T00:53:26.970Z,516
2023-07-18T00:54:28.727Z,516
2023-07-18T00:55:30.481Z,516.3
2023-07-18T00:56:32.244Z,516.6
2023-07-18T00:57:33.976Z,517.1
2023-07-18T00:58:35.720Z,517
2023-07-18T00:59:37.456Z,516.7
2023-07-18T01:00:39.192Z,516.7
2023-07-18T01:01:41.352Z,516.6
2023-07-18T01:02:44.072Z,517
2023-07-18T01:03:46.151Z,516.9
2023-07-18T01:04:48.083Z,517.3
2023-07-18T01:05:49.908Z,517.6
2023-07-18T01:06:52.047Z,517.5
2023-07-18T01:07:53.849Z,517.7
2023-07-18T01:08:55.575Z,517.3
2023-07-18T01:09:57.258Z,517.6
2023-07-18T01:10:59.037Z,517.3
2023-07-18T01:12:00.964Z,517.1
2023-07-18T01:13:02.854Z,517.5
2023-07-18T01:14:04.568Z,517.2
2023-07-18T01:15:06.295Z,517.1
2023-07-18T01:16:08.347Z,517
2023-07-18T01:17:10.207Z,517.3
2023-07-18T01:18:11.914Z,517.1
2023-07-18T01:19:13.601Z,517.4
2023-07-18T01:20:18.259Z,517.2
2023-07-18T01:21:21.405Z,517.1
2023-07-18T01:22:23.311Z,517
2023-07-18T01:23:25.275Z,516.9
2023-07-18T01:24:26.947Z,517.1
2023-07-18T01:25:28.744Z,517
2023-07-18T01:26:30.433Z,516.9
2023-07-18T01:27:32.247Z,517.4
2023-07-18T01:28:34.097Z,517.3
2023-07-18T01:29:35.846Z,517.3
2023-07-18T01:30:40.504Z,517.3
2023-07-18T01:31:42.919Z,517.2
2023-07-18T01:32:44.799Z,516.8
2023-07-18T01:33:46.519Z,516.8
2023-07-18T01:34:48.306Z,516.8
2023-07-18T01:35:50.043Z,517.1
2023-07-18T01:36:51.887Z,517
2023-07-18T01:37:53.619Z,517.3
2023-07-18T01:38:55.430Z,517.2
2023-07-18T01:39:57.157Z,516.9
2023-07-18T01:40:59.078Z,517.1
2023-07-18T01:42:00.806Z,516.8
2023-07-18T01:43:02.684Z,516.9
2023-07-18T01:44:04.456Z,517
2023-07-18T01:45:06.647Z,516.7
2023-07-18T01:46:08.510Z,516.4
2023-07-18T01:47:10.355Z,516
2023-07-18T01:48:12.362Z,516.2
2023-07-18T01:49:14.088Z,516.2
2023-07-18T01:50:15.854Z,516.3
2023-07-18T01:51:19.329Z,516.2
2023-07-18T01:52:21.188Z,516.6
2023-07-18T01:53:22.913Z,516.3
2023-07-18T01:54:24.615Z,516.2
2023-07-18T01:55:26.436Z,515.9
2023-07-18T01:56:28.177Z,516.2
2023-07-18T01:57:29.894Z,516.3
2023-07-18T01:58:31.631Z,516.3
2023-07-18T01:59:33.340Z,516.3
2023-07-18T02:00:35.279Z,516.4
2023-07-18T02:01:37.377Z,516.2
2023-07-18T02:02:39.716Z,516.4
2023-07-18T02:03:41.425Z,516.6
2023-07-18T02:04:43.265Z,516.9
2023-07-18T02:05:45.061Z,517
2023-07-18T02:06:46.782Z,517.3
2023-07-18T02:07:48.673Z,517.1
2023-07-18T02:08:50.464Z,517.1
2023-07-18T02:09:52.219Z,517
2023-07-18T02:10:53.939Z,516.9
2023-07-18T02:11:55.656Z,517.2
2023-07-18T02:12:57.459Z,517.3
2023-07-18T02:13:59.444Z,517.1
2023-07-18T02:15:01.191Z,517.3
2023-07-18T02:16:02.915Z,517.3
2023-07-18T02:17:05.021Z,517.5
2023-07-18T02:18:07.051Z,517
2023-07-18T02:19:08.777Z,516.6
2023-07-18T02:20:10.554Z,516.6
2023-07-18T02:21:12.272Z,516.6
2023-07-18T02:22:13.979Z,516.7
2023-07-18T02:23:16.517Z,516.8
2023-07-18T02:24:18.229Z,516.3
2023-07-18T02:25:22.976Z,516.5
2023-07-18T02:26:24.666Z,516.2
2023-07-18T02:27:26.386Z,516.4
2023-07-18T02:28:28.072Z,516.3
2023-07-18T02:29:29.812Z,516.7
2023-07-18T02:30:31.585Z,516.6
2023-07-18T02:31:33.595Z,516.5
2023-07-18T02:32:35.811Z,516.6
2023-07-18T02:33:37.521Z,516.4
2023-07-18T02:34:39.207Z,516.5
2023-07-18T02:35:40.978Z,516.4
2023-07-18T02:36:42.676Z,516
2023-07-18T02:37:44.433Z,516.1
2023-07-18T02:38:46.119Z,515.8
2023-07-18T02:39:47.843Z,515.5
2023-07-18T02:40:49.541Z,515.5
2023-07-18T02:41:54.243Z,515.5
2023-07-18T02:42:55.985Z,515.3
2023-07-18T02:43:57.675Z,515
2023-07-18T02:44:59.629Z,515.2
2023-07-18T02:46:01.399Z,515.2
2023-07-18T02:47:03.188Z,515.2
2023-07-18T02:48:05.228Z,515.2
2023-07-18T02:49:07.083Z,515.4
2023-07-18T02:50:08.811Z,515.2
2023-07-18T02:51:10.518Z,515.5
2023-07-18T02:52:12.196Z,515.1
2023-07-18T02:53:13.954Z,515.4
2023-07-18T02:54:15.661Z,515.5
2023-07-18T02:55:17.437Z,515.6
2023-07-18T02:56:19.129Z,515.9
2023-07-18T02:57:21.248Z,516
2023-07-18T02:58:23.058Z,516
2023-07-18T02:59:24.757Z,515.6
2023-07-18T03:00:26.606Z,515.5
2023-07-18T03:01:28.957Z,515.5
2023-07-18T03:02:31.161Z,515
2023-07-18T03:03:33.577Z,514.9
2023-07-18T03:04:35.438Z,514.6
2023-07-18T03:05:37.240Z,515.1
2023-07-18T03:06:38.936Z,514.6
2023-07-18T03:07:40.638Z,514.7
2023-07-18T03:08:42.368Z,514.7
2023-07-18T03:09:45.056Z,515.4
2023-07-18T03:10:46.745Z,515.3
2023-07-18T03:11:49.782Z,515.2
2023-07-18T03:12:52.194Z,514.8
2023-07-18T03:13:53.883Z,514.9
2023-07-18T03:14:55.629Z,515.1
2023-07-18T03:15:57.346Z,514.8
2023-07-18T03:16:59.289Z,514.8
2023-07-18T03:18:01.409Z,514.6
2023-07-18T03:19:03.206Z,514.5
2023-07-18T03:20:05.030Z,515
2023-07-18T03:21:06.754Z,514.9
2023-07-18T03:22:08.553Z,514.7
2023-07-18T03:23:10.941Z,514.5
2023-07-18T03:24:12.819Z,514.6
2023-07-18T03:25:15.255Z,514.4
2023-07-18T03:26:17.066Z,514.5
2023-07-18T03:27:18.834Z,514.4
2023-07-18T03:28:20.537Z,514.2
2023-07-18T03:29:22.320Z,514.4
2023-07-18T03:30:24.072Z,514.3
2023-07-18T03:31:26.247Z,514.3
2023-07-18T03:32:28.260Z,514.1
2023-07-18T03:33:30.080Z,514.3
2023-07-18T03:34:31.862Z,514.1
2023-07-18T03:35:33.549Z,514.5
2023-07-18T03:36:36.585Z,514.4
2023-07-18T03:37:39.452Z,514.4
2023-07-18T03:38:41.142Z,514.1
2023-07-18T03:39:42.850Z,513.8
2023-07-18T03:40:44.637Z,513.5
2023-07-18T03:41:47.022Z,513.8
2023-07-18T03:42:48.812Z,513.7
2023-07-18T03:43:50.548Z,513.8
2023-07-18T03:44:55.120Z,513.3
2023-07-18T03:45:57.009Z,513.4
2023-07-18T03:47:24.620Z,513.2
2023-07-18T03:48:26.426Z,513
2023-07-18T03:49:28.193Z,513
2023-07-18T03:50:30.201Z,512.7
2023-07-18T03:51:38.478Z,512.5
2023-07-18T03:52:40.185Z,512.1
2023-07-18T03:53:41.907Z,512.1
2023-07-18T03:54:43.622Z,512
2023-07-18T03:55:45.382Z,511.8
2023-07-18T03:56:47.104Z,511.6
2023-07-18T03:57:48.781Z,511.3
2023-07-18T03:58:52.986Z,511.2
2023-07-18T03:59:54.759Z,510.9
2023-07-18T04:00:56.445Z,510.7
2023-07-18T04:01:58.641Z,510.8
2023-07-18T04:03:01.325Z,510.8
2023-07-18T04:04:03.505Z,510.7
2023-07-18T04:05:05.291Z,510.8
2023-07-18T04:06:07.191Z,510.5
2023-07-18T04:07:09.247Z,510.5
2023-07-18T04:08:10.934Z,510.4
2023-07-18T04:09:12.657Z,510
2023-07-18T04:10:17.176Z,510
2023-07-18T04:11:20.699Z,510.1
2023-07-18T04:12:22.687Z,510.2
2023-07-18T04:13:24.358Z,510.6
2023-07-18T04:14:26.177Z,510.7
2023-07-18T04:15:27.892Z,510.3
2023-07-18T04:16:32.389Z,510.4
2023-07-18T04:17:35.371Z,510.7
2023-07-18T04:18:37.199Z,510.7
2023-07-18T04:19:39.030Z,510.7
2023-07-18T04:20:40.734Z,510.9
2023-07-18T04:21:42.578Z,510.7
2023-07-18T04:22:47.725Z,510.3
2023-07-18T04:23:49.514Z,510.4
2023-07-18T04:24:51.213Z,510.6
2023-07-18T04:25:52.896Z,510.8
2023-07-18T04:26:54.695Z,510.8
2023-07-18T04:27:56.444Z,510.8
2023-07-18T04:28:58.144Z,510.7
2023-07-18T04:29:59.937Z,511
2023-07-18T04:31:01.841Z,510.9
2023-07-18T04:32:03.978Z,511.2
2023-07-18T04:33:05.911Z,511.4
2023-07-18T04:34:08.173Z,511.7
2023-07-18T04:35:09.887Z,511.7
2023-07-18T04:36:11.689Z,511.8
2023-07-18T04:37:13.444Z,511.9
2023-07-18T04:38:15.305Z,511.9
2023-07-18T04:39:17.003Z,511.9
2023-07-18T04:40:18.773Z,512.1
2023-07-18T04:41:22.162Z,511.9
2023-07-18T04:42:24.468Z,512
2023-07-18T04:43:26.385Z,512
2023-07-18T04:44:28.191Z,511.9
2023-07-18T04:45:29.896Z,511.7
2023-07-18T04:46:32.022Z,512.1
2023-07-18T04:47:34.517Z,512
2023-07-18T04:48:36.333Z,511.8
2023-07-18T04:49:38.230Z,512
2023-07-18T04:50:40.052Z,512
2023-07-18T04:51:41.839Z,512.3
2023-07-18T04:52:43.672Z,512.3
2023-07-18T04:53:45.414Z,512.6
2023-07-18T04:54:47.234Z,512.6
2023-07-18T04:55:48.972Z,513
2023-07-18T04:56:50.703Z,513
2023-07-18T04:57:52.522Z,513.2
2023-07-18T04:58:54.403Z,513
2023-07-18T04:59:56.197Z,513
2023-07-18T05:00:58.267Z,513.1
2023-07-18T05:02:00.466Z,513
2023-07-18T05:03:02.947Z,513.1
2023-07-18T05:04:05.118Z,512.9
2023-07-18T05:05:06.924Z,513.3
2023-07-18T05:06:08.707Z,513.1
2023-07-18T05:07:10.536Z,513
2023-07-18T05:08:12.256Z,513.1
2023-07-18T05:09:13.979Z,513.2
2023-07-18T05:10:15.776Z,512.9
2023-07-18T05:11:19.602Z,513
2023-07-18T05:12:21.544Z,513.4
2023-07-18T05:13:23.326Z,513
2023-07-18T05:14:25.084Z,513.4
2023-07-18T05:15:26.778Z,513.2
2023-07-18T05:16:28.727Z,512.8
2023-07-18T05:17:30.716Z,512.9
2023-07-18T05:18:32.629Z,513
2023-07-18T05:19:34.348Z,513
2023-07-18T05:20:36.103Z,513
2023-07-18T05:21:37.848Z,513.3
2023-07-18T05:22:39.739Z,513.1
2023-07-18T05:23:41.499Z,513.2
2023-07-18T05:24:43.241Z,512.9
2023-07-18T05:25:45.021Z,513
2023-07-18T05:26:46.806Z,513
2023-07-18T05:27:48.577Z,513.1
2023-07-18T05:28:50.270Z,513.1
2023-07-18T05:29:51.936Z,513.1
2023-07-18T05:30:53.637Z,512.8
2023-07-18T05:31:55.738Z,512.7
2023-07-18T05:32:57.839Z,512.7
2023-07-18T05:33:59.756Z,512.9
2023-07-18T05:35:01.490Z,512.9
2023-07-18T05:36:03.448Z,513
2023-07-18T05:37:05.231Z,512.5
2023-07-18T05:38:07.246Z,512.6
2023-07-18T05:39:09.128Z,512.5
2023-07-18T05:40:13.835Z,512.6
2023-07-18T05:41:15.526Z,512.5
2023-07-18T05:42:17.273Z,512.6
2023-07-18T05:43:18.916Z,512.9
2023-07-18T05:44:20.644Z,513
2023-07-18T05:45:22.353Z,512.4
2023-07-18T05:46:24.452Z,512.5
2023-07-18T05:47:26.642Z,512.4
2023-07-18T05:48:28.585Z,512.5
2023-07-18T05:49:30.281Z,512.4
2023-07-18T05:50:32.033Z,512.3
2023-07-18T05:51:33.845Z,512.4
2023-07-18T05:52:35.637Z,512.3
2023-07-18T05:53:37.674Z,512.5
2023-07-18T05:54:40.911Z,512.7
2023-07-18T05:55:42.782Z,512.5
2023-07-18T05:56:44.583Z,512.7
2023-07-18T05:57:46.299Z,512.7
2023-07-18T05:58:48.104Z,512.9
2023-07-18T05:59:49.874Z,512.7
2023-07-18T06:00:51.886Z,512.8
2023-07-18T06:01:53.806Z,513.1
2023-07-18T06:03:02.939Z,513.3
2023-07-18T06:04:05.169Z,513
2023-07-18T06:05:06.932Z,513.2
2023-07-18T06:06:08.693Z,512.9
2023-07-18T06:07:10.429Z,513.2
2023-07-18T06:08:12.223Z,513.5
2023-07-18T06:09:13.936Z,513.1
2023-07-18T06:10:15.688Z,512.7
2023-07-18T06:11:18.850Z,512.6
2023-07-18T06:12:20.856Z,513
2023-07-18T06:13:22.633Z,513
2023-07-18T06:14:24.326Z,513.2
2023-07-18T06:15:26.091Z,513
2023-07-18T06:16:28.002Z,513.4
2023-07-18T06:17:29.971Z,513.5
2023-07-18T06:18:31.816Z,513.4
2023-07-18T06:19:33.531Z,513.4
2023-07-18T06:20:35.272Z,513.5
2023-07-18T06:21:37.211Z,513.3
2023-07-18T06:22:42.360Z,513.4
2023-07-18T06:23:48.225Z,513.2
2023-07-18T06:24:49.982Z,513.2
2023-07-18T06:25:51.722Z,513.1
2023-07-18T06:26:53.557Z,513.1
2023-07-18T06:27:55.295Z,513.2
2023-07-18T06:28:57.008Z,513.2
2023-07-18T06:29:58.774Z,513.5
2023-07-18T06:31:00.656Z,513.5
2023-07-18T06:32:02.624Z,513.8
2023-07-18T06:33:04.801Z,513.6
2023-07-18T06:34:06.547Z,513.6
2023-07-18T06:35:24.633Z,513.7
2023-07-18T06:36:26.637Z,513.8
2023-07-18T06:37:28.454Z,513.8
2023-07-18T06:38:30.278Z,513.7
2023-07-18T06:39:32.106Z,513.6
2023-07-18T06:40:33.905Z,513.9
2023-07-18T06:41:35.738Z,514
2023-07-18T06:42:37.464Z,514
2023-07-18T06:43:39.180Z,514
2023-07-18T06:44:40.942Z,513.6
2023-07-18T06:45:42.661Z,513.6
2023-07-18T06:46:45.509Z,513.4
2023-07-18T06:47:47.873Z,513.8
2023-07-18T06:48:49.725Z,513.7
2023-07-18T06:49:51.415Z,513.6
2023-07-18T06:50:53.190Z,513.5
2023-07-18T06:51:54.903Z,513.5
2023-07-18T06:52:56.652Z,513.7
2023-07-18T06:53:58.691Z,513.8
2023-07-18T06:55:00.437Z,513.7
2023-07-18T06:56:02.574Z,513.6
2023-07-18T06:57:04.424Z,513.7
2023-07-18T06:58:06.143Z,513.1
2023-07-18T06:59:07.868Z,513.2
2023-07-18T07:00:09.591Z,513.2
2023-07-18T07:01:11.766Z,513.2
2023-07-18T07:02:13.724Z,512.9
2023-07-18T07:03:19.167Z,513
2023-07-18T07:04:21.410Z,513.1
2023-07-18T07:05:23.348Z,513.1
2023-07-18T07:06:25.168Z,513
2023-07-18T07:07:26.903Z,512.9
2023-07-18T07:08:28.932Z,513.1
2023-07-18T07:09:30.733Z,513.1
2023-07-18T07:10:32.502Z,513.2
2023-07-18T07:11:34.350Z,513.1
2023-07-18T07:12:38.603Z,512.8
2023-07-18T07:13:40.403Z,513.1
2023-07-18T07:14:42.258Z,513
2023-07-18T07:15:44.008Z,512.9
2023-07-18T07:16:46.031Z,512.7
2023-07-18T07:17:48.212Z,512.8
2023-07-18T07:18:50.057Z,512.7
2023-07-18T07:19:51.941Z,512.7
2023-07-18T07:20:53.761Z,512.9
2023-07-18T07:21:55.638Z,512.8
2023-07-18T07:22:57.547Z,513
2023-07-18T07:23:59.622Z,513
2023-07-18T07:25:01.630Z,512.9
2023-07-18T07:26:03.325Z,512.8
2023-07-18T07:27:05.054Z,512.8
2023-07-18T07:28:06.877Z,512.7
2023-07-18T07:29:09.037Z,512.9
2023-07-18T07:30:11.012Z,513.1
2023-07-18T07:31:12.908Z,512.7
2023-07-18T07:32:14.935Z,513.5
2023-07-18T07:33:19.848Z,513
2023-07-18T07:34:21.562Z,513.2
2023-07-18T07:35:23.272Z,513.3
2023-07-18T07:36:25.066Z,513.3
2023-07-18T07:37:26.805Z,513.3
2023-07-18T07:38:28.607Z,513.7
2023-07-18T07:39:30.360Z,514
2023-07-18T07:40:32.377Z,513.6
2023-07-18T07:41:34.312Z,513.6
2023-07-18T07:42:36.051Z,513.7
2023-07-18T07:43:38.046Z,513.6
2023-07-18T07:44:39.865Z,513.6
2023-07-18T07:45:41.534Z,513.3
2023-07-18T07:46:43.539Z,513.7
2023-07-18T07:47:48.643Z,513.5
2023-07-18T07:48:50.375Z,513.7
2023-07-18T07:49:52.109Z,513.3
2023-07-18T07:50:53.826Z,513.7
2023-07-18T07:51:55.577Z,513.6
2023-07-18T07:52:57.286Z,513.5
2023-07-18T07:53:59.005Z,513.4
2023-07-18T07:55:00.835Z,513.4
2023-07-18T07:56:02.929Z,513.4
2023-07-18T07:57:04.644Z,513.4
2023-07-18T07:58:06.349Z,513.6
2023-07-18T07:59:15.884Z,513.5
2023-07-18T08:00:17.782Z,513.8
2023-07-18T08:01:21.081Z,513.7
2023-07-18T08:02:23.629Z,514
2023-07-18T08:03:25.504Z,514
2023-07-18T08:04:28.080Z,513.6
2023-07-18T08:05:30.259Z,513.8
2023-07-18T08:06:32.138Z,513.7
2023-07-18T08:07:33.949Z,513.7
2023-07-18T08:08:35.653Z,513.7
2023-07-18T08:09:37.349Z,513.8
2023-07-18T08:10:39.056Z,513.8
2023-07-18T08:11:40.859Z,513.7
2023-07-18T08:12:42.666Z,513.8
2023-07-18T08:13:44.470Z,514.2
2023-07-18T08:14:46.492Z,514.3
2023-07-18T08:15:48.247Z,514.1
2023-07-18T08:16:50.382Z,514.2
2023-07-18T08:17:52.372Z,514.3
2023-07-18T08:18:54.192Z,514.6
2023-07-18T08:19:56.008Z,514.7
2023-07-18T08:20:57.684Z,514.5
2023-07-18T08:21:59.466Z,514.8
2023-07-18T08:23:01.570Z,514.8
2023-07-18T08:24:03.388Z,515.1
2023-07-18T08:25:05.317Z,515.1
2023-07-18T08:26:07.083Z,514.8
2023-07-18T08:27:09.007Z,514.7
2023-07-18T08:28:10.816Z,514.5
2023-07-18T08:29:12.666Z,514.5
2023-07-18T08:30:14.592Z,514.2
2023-07-18T08:31:16.374Z,514.3
2023-07-18T08:32:18.281Z,514.3
2023-07-18T08:33:20.066Z,514.2
2023-07-18T08:34:22.132Z,514.3
2023-07-18T08:35:24.063Z,513.9
2023-07-18T08:36:25.744Z,514.2
2023-07-18T08:37:27.497Z,513.9
2023-07-18T08:38:29.272Z,513.7
2023-07-18T08:39:30.965Z,513.4
2023-07-18T08:40:32.665Z,513.6
2023-07-18T08:41:34.413Z,513.9
2023-07-18T08:42:36.159Z,514.4
2023-07-18T08:43:37.963Z,514.5
2023-07-18T08:44:39.689Z,514.2
2023-07-18T08:45:41.461Z,514.3
2023-07-18T08:46:43.898Z,514.4
2023-07-18T08:47:46.274Z,514.8
2023-07-18T08:48:48.144Z,515
2023-07-18T08:49:49.906Z,515
2023-07-18T08:50:51.799Z,515.2
2023-07-18T08:51:53.492Z,515.4
2023-07-18T08:52:55.523Z,515.3
2023-07-18T08:53:57.297Z,515.2
2023-07-18T08:54:59.053Z,515.2
2023-07-18T08:56:01.387Z,515.3
2023-07-18T08:57:03.244Z,515.3
2023-07-18T08:58:04.985Z,515.4
2023-07-18T08:59:06.774Z,515.2
2023-07-18T09:00:08.534Z,515.6
2023-07-18T09:01:10.380Z,515.4
2023-07-18T09:02:12.768Z,515.3
2023-07-18T09:03:14.455Z,515.7
2023-07-18T09:04:16.816Z,515.8
2023-07-18T09:05:18.743Z,515.7
2023-07-18T09:06:20.540Z,515.6
2023-07-18T09:07:22.273Z,515.6
2023-07-18T09:08:24.016Z,515.7
2023-07-18T09:09:25.951Z,515.8
2023-07-18T09:10:27.838Z,516
2023-07-18T09:11:29.579Z,515.8
2023-07-18T09:12:31.351Z,515.7
2023-07-18T09:13:33.096Z,516.1
2023-07-18T09:14:35.018Z,515.9
2023-07-18T09:15:36.796Z,516.1
2023-07-18T09:16:38.847Z,516.4
2023-07-18T09:17:40.868Z,515.8
2023-07-18T09:18:42.628Z,516
2023-07-18T09:19:44.485Z,515.9
2023-07-18T09:20:46.251Z,516
2023-07-18T09:21:47.956Z,516.1
2023-07-18T09:22:49.752Z,516.3
2023-07-18T09:24:58.270Z,516.1
2023-07-18T09:25:59.945Z,516.3
2023-07-18T09:27:01.664Z,516.8
2023-07-18T09:28:03.340Z,516.7
2023-07-18T09:29:05.232Z,516.8
2023-07-18T09:30:10.577Z,517
2023-07-18T09:31:12.414Z,517
2023-07-18T09:32:14.208Z,517.4
2023-07-18T09:33:15.990Z,516.7
2023-07-18T09:34:17.867Z,517
2023-07-18T09:35:19.614Z,516.7
2023-07-18T09:36:21.376Z,516.6
2023-07-18T09:37:23.153Z,516.7
2023-07-18T09:38:24.982Z,516.7
2023-07-18T09:39:26.701Z,517.4
2023-07-18T09:40:28.486Z,517.3
2023-07-18T09:41:30.337Z,517.1
2023-07-18T09:42:33.487Z,517.9
2023-07-18T09:43:37.283Z,517.5
2023-07-18T09:44:39.095Z,517.8
2023-07-18T09:45:41.057Z,517.8
2023-07-18T09:46:43.056Z,517.8
2023-07-18T09:47:45.066Z,518
2023-07-18T09:48:52.558Z,518
2023-07-18T09:49:54.548Z,518.2
2023-07-18T09:50:56.511Z,518.3
2023-07-18T09:51:58.275Z,518.2
2023-07-18T09:53:00.085Z,518
2023-07-18T09:54:06.276Z,518.2
2023-07-18T09:55:08.019Z,517.6
2023-07-18T09:56:09.697Z,517.6
2023-07-18T09:57:11.702Z,518.3
2023-07-18T09:58:13.645Z,518.1
2023-07-18T09:59:15.395Z,518.2
2023-07-18T10:00:20.252Z,518.9
2023-07-18T10:01:23.994Z,518.7
2023-07-18T10:02:25.824Z,519
2023-07-18T10:03:28.103Z,519.3
2023-07-18T10:04:29.955Z,519
2023-07-18T10:05:31.680Z,519.6
2023-07-18T10:06:33.482Z,519.4
2023-07-18T10:07:35.182Z,519.6
2023-07-18T10:08:36.953Z,519.2
2023-07-18T10:09:38.934Z,519.5
2023-07-18T10:10:40.657Z,519.8
2023-07-18T10:11:42.369Z,519.7
2023-07-18T10:12:47.053Z,519.5
2023-07-18T10:13:48.836Z,519.2
2023-07-18T10:14:50.604Z,519.5
2023-07-18T10:15:52.613Z,519.4
2023-07-18T10:16:54.990Z,519.8
2023-07-18T10:17:57.633Z,519.8
2023-07-18T10:18:59.504Z,519.5
2023-07-18T10:20:01.215Z,519
2023-07-18T10:21:02.980Z,519
2023-07-18T10:22:04.742Z,519
2023-07-18T10:23:06.887Z,518.9
2023-07-18T10:24:08.662Z,519.1
2023-07-18T10:25:10.469Z,519.2
2023-07-18T10:26:12.414Z,519.8
2023-07-18T10:27:14.116Z,519.6
2023-07-18T10:28:15.803Z,519.6
2023-07-18T10:29:17.489Z,519.3
2023-07-18T10:30:19.230Z,519.3
2023-07-18T10:31:22.515Z,519.9
2023-07-18T10:32:24.675Z,519.6
2023-07-18T10:33:26.684Z,519.6
2023-07-18T10:34:28.505Z,519.7
2023-07-18T10:35:30.198Z,519.9
2023-07-18T10:36:31.975Z,519.6
2023-07-18T10:37:34.190Z,520.1
2023-07-18T10:38:35.984Z,519.6
2023-07-18T10:39:37.706Z,519.9
2023-07-18T10:40:39.539Z,519.9
2023-07-18T10:41:41.296Z,519.9
2023-07-18T10:42:43.093Z,519.9
2023-07-18T10:43:44.878Z,520.2
2023-07-18T10:44:46.592Z,520
2023-07-18T10:45:49.117Z,520
2023-07-18T10:46:51.365Z,519.7
2023-07-18T10:47:53.658Z,519.9
2023-07-18T10:48:55.419Z,519.9
2023-07-18T10:49:57.250Z,520.4
2023-07-18T10:50:59.048Z,520.2
2023-07-18T10:52:00.746Z,520.5
2023-07-18T10:53:02.481Z,520.7
2023-07-18T10:54:04.297Z,520.2
2023-07-18T10:55:06.117Z,520.6
2023-07-18T10:56:07.848Z,520.2
2023-07-18T10:57:09.568Z,520.7
2023-07-18T10:58:11.262Z,520.2
2023-07-18T10:59:13.020Z,520.3
2023-07-18T11:00:14.888Z,520.3
2023-07-18T11:01:17.051Z,520.3
2023-07-18T11:02:19.433Z,520.3
2023-07-18T11:03:21.248Z,520.5
2023-07-18T11:04:23.540Z,520.3
2023-07-18T11:05:25.409Z,520.4
2023-07-18T11:06:27.173Z,520.4
2023-07-18T11:07:28.893Z,520.2
2023-07-18T11:08:30.762Z,520.1
2023-07-18T11:09:32.670Z,520
2023-07-18T11:10:34.426Z,520.5
2023-07-18T11:11:36.133Z,520
2023-07-18T11:12:38.524Z,520.3
2023-07-18T11:13:40.249Z,520.7
2023-07-18T11:14:42.041Z,520.3
2023-07-18T11:15:43.786Z,520
2023-07-18T11:16:46.167Z,520
2023-07-18T11:17:48.399Z,519.7
2023-07-18T11:18:50.179Z,519.7
2023-07-18T11:19:51.969Z,519.5
2023-07-18T11:20:53.826Z,519.5
2023-07-18T11:21:55.577Z,519.9
2023-07-18T11:22:57.558Z,519.6
2023-07-18T11:23:59.319Z,519.7
2023-07-18T11:25:01.176Z,519.5
2023-07-18T11:26:02.975Z,519.6
2023-07-18T11:27:04.694Z,519.3
2023-07-18T11:28:06.410Z,519.2
2023-07-18T11:29:08.193Z,519.1
2023-07-18T11:30:10.129Z,518.7
2023-07-18T11:31:42.364Z,519.3
2023-07-18T11:32:44.752Z,518.8
2023-07-18T11:33:46.550Z,519.3
2023-07-18T11:34:48.279Z,519.4
2023-07-18T11:35:50.006Z,519.4
2023-07-18T11:36:51.913Z,519.5
2023-07-18T11:37:53.859Z,519.5
2023-07-18T11:38:55.666Z,519.7
2023-07-18T11:39:57.462Z,520
2023-07-18T11:40:59.317Z,519.3
2023-07-18T11:42:01.091Z,519.8
2023-07-18T11:43:02.866Z,520.3
2023-07-18T11:44:04.647Z,520.2
2023-07-18T11:45:06.395Z,520.5
2023-07-18T11:46:08.126Z,520.1
2023-07-18T11:47:09.825Z,520
2023-07-18T11:48:12.160Z,520
2023-07-18T11:49:14.174Z,520.2
2023-07-18T11:50:16.037Z,520.1
2023-07-18T11:51:21.941Z,520.3
2023-07-18T11:52:23.856Z,520.1
2023-07-18T11:53:25.581Z,520.4
2023-07-18T11:54:27.376Z,520.1
2023-07-18T11:55:29.123Z,520.4
2023-07-18T11:56:30.938Z,520.3
2023-07-18T11:57:32.638Z,520.4
2023-07-18T11:58:34.394Z,520.4
2023-07-18T11:59:36.166Z,520.3
2023-07-18T12:00:37.927Z,520.4
2023-07-18T12:01:40.027Z,520.1
2023-07-18T12:02:42.181Z,520
2023-07-18T12:03:44.447Z,519.7
2023-07-18T12:04:46.493Z,519.8
2023-07-18T12:05:48.317Z,520.1
2023-07-18T12:06:50.082Z,520
2023-07-18T12:07:51.871Z,519.7
2023-07-18T12:08:53.593Z,520.2
2023-07-18T12:09:55.325Z,520.3
2023-07-18T12:11:10.401Z,520.1
2023-07-18T12:12:12.689Z,519.9
2023-07-18T12:13:14.575Z,520.3
2023-07-18T12:14:16.424Z,520.3
2023-07-18T12:15:18.155Z,520.6
2023-07-18T12:16:20.251Z,520
2023-07-18T12:17:22.350Z,520.1
2023-07-18T12:18:24.092Z,520.2
2023-07-18T12:19:25.817Z,520.4
2023-07-18T12:20:28.031Z,520.2
2023-07-18T12:21:30.001Z,520
2023-07-18T12:22:31.945Z,519.8
2023-07-18T12:23:33.822Z,519.8
2023-07-18T12:24:35.564Z,519.9
2023-07-18T12:25:37.401Z,520.2
2023-07-18T12:26:39.121Z,520.2
2023-07-18T12:27:40.877Z,520
2023-07-18T12:28:42.597Z,520.3
2023-07-18T12:29:44.346Z,520.3
2023-07-18T12:30:46.393Z,520.1
2023-07-18T12:31:51.658Z,520.3
2023-07-18T12:32:54.286Z,520.4
2023-07-18T12:33:56.250Z,520.5
2023-07-18T12:34:58.080Z,520.2
2023-07-18T12:35:59.975Z,520.4
2023-07-18T12:37:01.770Z,520.3
2023-07-18T12:38:03.577Z,520.3
2023-07-18T12:39:05.368Z,520.1
2023-07-18T12:40:07.280Z,520.2
2023-07-18T12:41:09.194Z,520.1
2023-07-18T12:42:10.922Z,520.5
2023-07-18T12:43:12.892Z,520.3
2023-07-18T12:44:14.651Z,520.6
2023-07-18T12:45:16.425Z,520.2
2023-07-18T12:46:20.750Z,520.6
2023-07-18T12:47:22.803Z,520
2023-07-18T12:48:24.536Z,520.3
2023-07-18T12:50:40.059Z,520.3
2023-07-18T12:51:41.970Z,520.1
2023-07-18T12:52:43.695Z,519.9
2023-07-18T12:53:45.471Z,520.1
2023-07-18T12:54:47.270Z,520.4
2023-07-18T12:55:49.031Z,520.3
2023-07-18T12:56:50.783Z,520.1
2023-07-18T12:57:52.503Z,520.1
2023-07-18T12:58:54.266Z,520
2023-07-18T12:59:56.039Z,520
2023-07-18T13:00:57.752Z,520.4
2023-07-18T13:01:59.790Z,520.5
2023-07-18T13:03:02.191Z,520.7
2023-07-18T13:04:06.928Z,520.4
2023-07-18T13:05:08.680Z,520.8
2023-07-18T13:06:10.426Z,521
2023-07-18T13:07:12.363Z,520.9
2023-07-18T13:08:14.133Z,521.1
2023-07-18T13:09:15.982Z,520.9
2023-07-18T13:10:17.796Z,521
2023-07-18T13:11:19.548Z,521.1
2023-07-18T13:12:21.346Z,520.7
2023-07-18T13:13:23.137Z,520.8
2023-07-18T13:14:24.889Z,521.1
2023-07-18T13:15:26.638Z,521.2
2023-07-18T13:16:28.523Z,521.1
2023-07-18T13:17:30.523Z,521.4
2023-07-18T13:18:32.342Z,521.7
2023-07-18T13:19:36.856Z,521.4
2023-07-18T13:20:38.585Z,521.3
2023-07-18T13:21:43.315Z,521.5
2023-07-18T13:22:45.368Z,521.5
2023-07-18T13:23:47.121Z,521.5
2023-07-18T13:24:48.903Z,521.4
2023-07-18T13:25:50.672Z,521.6
2023-07-18T13:26:52.516Z,521.6
2023-07-18T13:27:54.253Z,521.5
2023-07-18T13:28:56.077Z,521.6
2023-07-18T13:29:57.808Z,521.9